Time;durP1;ratioP1;P1;durP2;ratioP2;P2;SDS_P1;SDS_P2;PMS_P1;PMS_P2;Temp;Humidity;BMP_temperature;BMP_pressure;BME280_temperature;BME280_humidity;BME280_pressure;Samples;Min_cycle;Max_cycle;Signal;HPM_P1;HPM_P2
2021/09/05 00:01:48;;;;;;;;;;;;;;;11.23;94.79;98543.84;1708222;83;21038;-78
2021/09/05 00:04:14;;;;;;;;;;;;;;;11.24;94.36;98544.11;1707818;83;20184;-73
2021/09/05 00:06:58;;;;;;;;;;;;;;;11.28;94.55;98546.56;1708243;83;20198;-78
2021/09/05 00:09:26;;;;;;;;;;;;;;;11.33;94.12;98545.19;1706360;83;20416;-73
2021/09/05 00:11:52;;;;;;;;;;;;;;;11.34;93.87;98546.00;1707919;83;20135;-74
2021/09/05 00:14:18;;;;;;;;;;;;;;;11.32;93.89;98546.82;1708138;83;21161;-73
2021/09/05 00:16:45;;;;;;;;;;;;;;;11.33;93.34;98545.19;1712378;83;20234;-78
2021/09/05 00:19:11;;;;;;;;;;;;;;;11.30;93.39;98536.25;1716158;83;20132;-78
2021/09/05 00:21:36;;;;;;;;;;;;;;;11.27;92.45;98536.23;1715912;83;20146;-78
2021/09/05 00:24:02;;;;;;;;;;;;;;;11.18;92.75;98537.86;1716230;83;20198;-73
2021/09/05 00:26:32;;;;;;;;;;;;;;;11.16;92.49;98543.28;1715949;83;20803;-78
2021/09/05 00:28:58;;;;;;;;;;;;;;;11.12;92.38;98543.03;1716014;83;20407;-78
2021/09/05 00:31:23;;;;;;;;;;;;;;;11.07;92.12;98547.63;1715844;83;20128;-73
2021/09/05 00:33:49;;;;;;;;;;;;;;;11.06;92.31;98547.36;1716068;83;20669;-77
2021/09/05 00:36:15;;;;;;;;;;;;;;;11.07;92.14;98549.79;1715888;83;20683;-73
2021/09/05 00:38:41;;;;;;;;;;;;;;;11.05;91.67;98545.19;1716064;83;21789;-77
2021/09/05 00:41:06;;;;;;;;;;;;;;;10.97;92.19;98547.07;1715829;83;20189;-74
2021/09/05 00:43:32;;;;;;;;;;;;;;;10.97;91.82;98549.78;1716088;83;20647;-73
2021/09/05 00:45:58;;;;;;;;;;;;;;;10.99;92.11;98547.06;1715874;83;20556;-73
2021/09/05 00:48:23;;;;;;;;;;;;;;;10.98;92.31;98548.70;1716087;83;20218;-78
2021/09/05 00:50:49;;;;;;;;;;;;;;;10.99;92.52;98547.06;1715998;83;21242;-78
2021/09/05 00:53:16;;;;;;;;;;;;;;;10.90;92.84;98550.58;1716030;83;20286;-77
2021/09/05 00:55:42;;;;;;;;;;;;;;;10.88;92.77;98546.79;1716044;83;20140;-77
2021/09/05 00:58:08;;;;;;;;;;;;;;;10.88;92.54;98550.05;1716120;83;20166;-73
2021/09/05 01:00:37;;;;;;;;;;;;;;;10.80;92.82;98550.03;1715997;83;20175;-73
2021/09/05 01:03:03;;;;;;;;;;;;;;;10.74;93.29;98543.77;1716109;83;21864;-77
2021/09/05 01:05:30;;;;;;;;;;;;;;;10.73;92.92;98548.11;1715690;83;20282;-73
2021/09/05 01:07:56;;;;;;;;;;;;;;;10.64;93.14;98542.39;1715879;83;20136;-77
2021/09/05 01:10:22;;;;;;;;;;;;;;;10.64;92.91;98542.94;1715856;83;20146;-73
2021/09/05 01:12:47;;;;;;;;;;;;;;;10.59;93.81;98548.33;1716233;83;20168;-77
2021/09/05 01:15:13;;;;;;;;;;;;;;;10.61;93.09;98548.91;1715828;83;21069;-77
2021/09/05 01:17:39;;;;;;;;;;;;;;;10.62;92.82;98549.98;1715910;83;20201;-77
2021/09/05 01:20:08;;;;;;;;;;;;;;;10.57;92.81;98549.15;1715855;83;20249;-73
2021/09/05 01:22:34;;;;;;;;;;;;;;;10.55;92.29;98549.42;1716217;83;20163;-73
2021/09/05 01:25:00;;;;;;;;;;;;;;;10.47;92.91;98554.00;1715870;83;20164;-78
2021/09/05 01:27:26;;;;;;;;;;;;;;;10.49;92.85;98557.79;1716227;83;21164;-77
2021/09/05 01:29:52;;;;;;;;;;;;;;;10.50;92.53;98553.45;1715931;83;20178;-73
2021/09/05 01:32:18;;;;;;;;;;;;;;;10.46;92.23;98557.80;1716236;83;20132;-73
2021/09/05 01:34:44;;;;;;;;;;;;;;;10.50;91.44;98556.70;1715925;83;20166;-78
2021/09/05 01:37:09;;;;;;;;;;;;;;;10.41;92.02;98557.22;1716278;83;20151;-77
2021/09/05 01:39:35;;;;;;;;;;;;;;;10.41;91.66;98561.28;1716077;83;21076;-73
2021/09/05 01:42:01;;;;;;;;;;;;;;;10.35;90.91;98562.36;1715868;83;20161;-74
2021/09/05 01:44:27;;;;;;;;;;;;;;;10.37;90.80;98568.32;1716056;83;20234;-74
2021/09/05 01:46:53;;;;;;;;;;;;;;;10.32;90.51;98561.52;1715834;83;20134;-73
2021/09/05 01:49:19;;;;;;;;;;;;;;;10.29;90.47;98562.06;1697449;83;20408;-73
2021/09/05 01:51:44;;;;;;;;;;;;;;;10.26;90.54;98566.66;1715854;83;21098;-74
2021/09/05 01:54:10;;;;;;;;;;;;;;;10.21;91.60;98563.08;1715993;83;20170;-73
2021/09/05 01:56:36;;;;;;;;;;;;;;;10.20;91.45;98563.61;1715895;83;20166;-73
2021/09/05 01:59:02;;;;;;;;;;;;;;;10.18;91.00;98561.72;1716076;83;20112;-73
2021/09/05 02:01:29;;;;;;;;;;;;;;;10.15;90.91;98563.03;1715853;83;20136;-77
2021/09/05 02:03:55;;;;;;;;;;;;;;;10.11;90.81;98567.36;1716005;83;21887;-73
2021/09/05 02:06:21;;;;;;;;;;;;;;;10.08;91.11;98567.90;1715759;83;20191;-73
2021/09/05 02:08:47;;;;;;;;;;;;;;;10.07;91.24;98574.37;1721471;83;20420;-73
2021/09/05 02:11:13;;;;;;;;;;;;;;;10.00;92.31;98575.67;1715846;83;20569;-78
2021/09/05 02:13:39;;;;;;;;;;;;;;;9.99;91.80;98576.76;1715992;83;20144;-74
2021/09/05 02:16:05;;;;;;;;;;;;;;;9.96;92.27;98579.45;1715483;83;21716;-78
2021/09/05 02:18:31;;;;;;;;;;;;;;;9.90;92.48;98584.55;1708087;83;20343;-77
2021/09/05 02:20:56;;;;;;;;;;;;;;;9.84;93.29;98585.63;1708030;83;20213;-78
2021/09/05 02:23:22;;;;;;;;;;;;;;;9.81;92.76;98586.94;1708300;83;20186;-73
2021/09/05 02:25:48;;;;;;;;;;;;;;;9.74;91.84;98591.78;1708114;83;20155;-73
2021/09/05 02:28:14;;;;;;;;;;;;;;;9.66;93.23;98592.27;1708261;83;21097;-77
2021/09/05 02:30:39;;;;;;;;;;;;;;;9.70;92.79;98590.66;1707969;83;20186;-77
2021/09/05 02:33:05;;;;;;;;;;;;;;;9.72;92.85;98592.56;1708278;83;20166;-73
2021/09/05 02:35:31;;;;;;;;;;;;;;;9.75;92.48;98595.30;1707873;83;20616;-73
2021/09/05 02:37:57;;;;;;;;;;;;;;;9.76;92.73;98596.39;1708197;83;20158;-73
2021/09/05 02:40:23;;;;;;;;;;;;;;;9.77;92.43;98596.67;1707842;83;21843;-78
2021/09/05 02:42:48;;;;;;;;;;;;;;;9.75;93.14;98605.59;1708108;84;20359;-75
2021/09/05 02:45:14;;;;;;;;;;;;;;;9.72;92.45;98602.03;1707883;83;20292;-73
2021/09/05 02:47:41;;;;;;;;;;;;;;;9.70;91.96;98607.44;1708147;83;20543;-73
2021/09/05 02:50:08;;;;;;;;;;;;;;;9.66;91.71;98608.50;1707867;83;20104;-77
2021/09/05 02:52:34;;;;;;;;;;;;;;;9.60;91.51;98606.29;1708194;84;21188;-77
2021/09/05 02:55:00;;;;;;;;;;;;;;;9.54;91.28;98604.61;1707836;83;20400;-77
2021/09/05 02:57:26;;;;;;;;;;;;;;;9.42;91.35;98609.39;1708120;83;20277;-77
2021/09/05 02:59:51;;;;;;;;;;;;;;;9.33;92.20;98608.23;1707949;83;20166;-78
2021/09/05 03:02:17;;;;;;;;;;;;;;;9.33;91.75;98606.87;1707956;83;20435;-73
2021/09/05 03:04:43;;;;;;;;;;;;;;;9.30;91.77;98608.72;1708043;83;21954;-73
2021/09/05 03:07:09;;;;;;;;;;;;;;;9.27;91.83;98607.36;1707832;83;20351;-77
2021/09/05 03:09:35;;;;;;;;;;;;;;;9.26;91.85;98603.56;1707967;83;20269;-73
2021/09/05 03:12:00;;;;;;;;;;;;;;;9.21;91.71;98608.38;1707935;83;20134;-78
2021/09/05 03:14:26;;;;;;;;;;;;;;;9.21;91.72;98608.91;1708151;83;20234;-73
2021/09/05 03:16:52;;;;;;;;;;;;;;;9.21;92.11;98613.78;1709799;83;21095;-73
2021/09/05 03:19:18;;;;;;;;;;;;;;;9.23;92.25;98610.31;1715981;83;20261;-77
2021/09/05 03:21:46;;;;;;;;;;;;;;;9.25;91.06;98610.86;1715966;83;20225;-73
2021/09/05 03:24:11;;;;;;;;;;;;;;;9.22;91.93;98617.30;1715877;83;20108;-73
2021/09/05 03:26:37;;;;;;;;;;;;;;;9.24;91.04;98613.83;1716022;83;20166;-77
2021/09/05 03:29:03;;;;;;;;;;;;;;;9.19;93.20;98622.70;1721555;83;22769;-73
2021/09/05 03:31:28;;;;;;;;;;;;;;;9.21;92.43;98625.14;1715859;83;20166;-73
2021/09/05 03:33:54;;;;;;;;;;;;;;;9.18;93.51;98625.66;1716050;83;20205;-77
2021/09/05 03:36:20;;;;;;;;;;;;;;;9.19;93.98;98626.75;1715840;83;20134;-78
2021/09/05 03:38:45;;;;;;;;;;;;;;;9.23;92.98;98634.65;1715967;83;20214;-78
2021/09/05 03:41:11;;;;;;;;;;;;;;;9.18;92.75;98625.66;1715855;83;21144;-73
2021/09/05 03:43:37;;;;;;;;;;;;;;;9.17;92.42;98628.91;1721470;83;20150;-74
2021/09/05 03:46:03;;;;;;;;;;;;;;;9.17;92.19;98626.20;1715918;83;20170;-73
2021/09/05 03:48:29;;;;;;;;;;;;;;;9.19;91.95;98624.59;1715934;83;20659;-73
2021/09/05 03:50:55;;;;;;;;;;;;;;;9.11;92.52;98625.86;1715892;83;20161;-78
2021/09/05 03:53:20;;;;;;;;;;;;;;;9.08;93.17;98625.56;1716039;83;21093;-78
2021/09/05 03:55:46;;;;;;;;;;;;;;;9.09;93.15;98632.06;1715965;83;20170;-78
2021/09/05 03:58:12;;;;;;;;;;;;;;;9.10;92.67;98633.70;1715801;83;20191;-78
2021/09/05 04:00:38;;;;;;;;;;;;;;;9.04;92.32;98631.46;1716075;83;20221;-73
2021/09/05 04:03:04;;;;;;;;;;;;;;;9.05;91.93;98631.73;1716164;83;20182;-73
2021/09/05 04:05:30;;;;;;;;;;;;;;;9.03;91.73;98635.78;1715713;83;21152;-78
2021/09/05 04:10:34;;;;;;;;;;;;;;;9.04;91.83;98641.46;1715960;83;20152;-73
2021/09/05 04:13:00;;;;;;;;;;;;;;;9.08;91.36;98646.66;1715544;83;20411;-78
2021/09/05 04:15:26;;;;;;;;;;;;;;;9.08;91.28;98650.71;1715701;83;20213;-73
2021/09/05 04:17:52;;;;;;;;;;;;;;;9.06;91.32;98652.86;1713841;83;22005;-73
2021/09/05 04:20:18;;;;;;;;;;;;;;;9.02;91.06;98650.37;1712060;84;20726;-73
2021/09/05 04:22:44;;;;;;;;;;;;;;;8.99;91.04;98654.94;1712345;83;20221;-78
2021/09/05 04:25:10;;;;;;;;;;;;;;;8.93;90.91;98653.24;1712154;84;20537;-78
2021/09/05 04:27:36;;;;;;;;;;;;;;;8.91;91.05;98650.80;1712196;84;20156;-78
2021/09/05 04:30:03;;;;;;;;;;;;;;;8.89;90.89;98654.84;1712252;83;21099;-78
2021/09/05 04:32:28;;;;;;;;;;;;;;;8.88;90.53;98659.93;1712050;84;20164;-78
2021/09/05 04:34:54;;;;;;;;;;;;;;;8.78;90.42;98661.17;1712265;84;20218;-78
2021/09/05 04:37:20;;;;;;;;;;;;;;;8.72;90.95;98658.42;1712209;84;20142;-78
2021/09/05 04:39:46;;;;;;;;;;;;;;;8.66;91.38;98662.13;1712195;84;20150;-73
2021/09/05 04:42:12;;;;;;;;;;;;;;;8.62;91.63;98667.73;1712068;84;21938;-78
2021/09/05 04:44:38;;;;;;;;;;;;;;;8.64;91.49;98668.86;1712130;84;20253;-73
2021/09/05 04:47:04;;;;;;;;;;;;;;;8.64;91.07;98669.67;1712183;84;20533;-73
2021/09/05 04:49:31;;;;;;;;;;;;;;;8.62;91.00;98671.78;1712250;83;20470;-73
2021/09/05 04:51:57;;;;;;;;;;;;;;;8.61;91.60;98676.09;1712217;84;20140;-73
2021/09/05 04:54:22;;;;;;;;;;;;;;;8.62;91.86;98685.29;1712316;84;21103;-73
2021/09/05 04:56:48;;;;;;;;;;;;;;;8.65;91.94;98686.70;1712203;83;20178;-78
2021/09/05 04:59:14;;;;;;;;;;;;;;;8.69;92.04;98693.22;1712274;83;20210;-78
2021/09/05 05:01:40;;;;;;;;;;;;;;;8.77;91.95;98687.38;1712336;83;20627;-73
2021/09/05 05:04:05;;;;;;;;;;;;;;;8.83;91.92;98693.14;1712410;84;20187;-73
2021/09/05 05:06:31;;;;;;;;;;;;;;;8.94;92.00;98688.66;1712441;83;21168;-78
2021/09/05 05:08:57;;;;;;;;;;;;;;;9.00;91.62;98691.72;1712465;84;20416;-78
2021/09/05 05:11:23;;;;;;;;;;;;;;;9.04;91.12;98699.05;1712454;84;20165;-73
2021/09/05 05:13:49;;;;;;;;;;;;;;;9.08;90.30;98693.97;1712530;83;20163;-78
2021/09/05 05:16:15;;;;;;;;;;;;;;;9.10;90.08;98697.23;1712490;84;20166;-73
2021/09/05 05:18:41;;;;;;;;;;;;;;;9.07;90.41;98702.34;1714998;83;21848;-78
2021/09/05 05:21:08;;;;;;;;;;;;;;;9.06;91.24;98702.88;1715973;83;20183;-73
2021/09/05 05:23:35;;;;;;;;;;;;;;;9.03;90.50;98697.42;1716130;83;20136;-78
2021/09/05 05:26:00;;;;;;;;;;;;;;;9.02;89.71;98704.44;1716180;83;20144;-73
2021/09/05 05:28:26;;;;;;;;;;;;;;;9.00;89.88;98710.63;1716087;83;20740;-78
2021/09/05 05:30:52;;;;;;;;;;;;;;;8.97;89.60;98707.91;1715980;83;21901;-73
2021/09/05 05:33:18;;;;;;;;;;;;;;;9.02;89.89;98722.01;1716008;83;20808;-73
2021/09/05 05:35:44;;;;;;;;;;;;;;;9.05;90.26;98718.78;1716053;83;20183;-73
2021/09/05 05:38:10;;;;;;;;;;;;;;;9.05;90.43;98720.14;1715772;83;20439;-78
2021/09/05 05:40:35;;;;;;;;;;;;;;;9.14;91.03;98724.03;1716137;83;20178;-73
2021/09/05 05:43:02;;;;;;;;;;;;;;;9.24;90.79;98722.81;1721390;83;22939;-77
2021/09/05 05:45:27;;;;;;;;;;;;;;;9.36;91.17;98728.06;1715860;83;20431;-73
2021/09/05 05:47:53;;;;;;;;;;;;;;;9.50;90.32;98728.48;1715933;83;20288;-78
2021/09/05 05:50:19;;;;;;;;;;;;;;;9.60;90.01;98725.88;1715909;83;20182;-78
2021/09/05 05:52:45;;;;;;;;;;;;;;;9.71;89.98;98734.36;1715906;83;20186;-77
2021/09/05 05:55:11;;;;;;;;;;;;;;;9.82;89.72;98736.08;1715978;83;21104;-78
2021/09/05 05:57:36;;;;;;;;;;;;;;;9.97;89.63;98737.30;1715831;83;20136;-73
2021/09/05 06:00:05;;;;;;;;;;;;;;;10.10;89.62;98743.64;1715952;83;20162;-73
2021/09/05 06:02:30;;;;;;;;;;;;;;;10.26;89.43;98745.43;1715872;83;20136;-73
2021/09/05 06:04:56;;;;;;;;;;;;;;;10.41;89.03;98748.22;1716014;83;20178;-78
2021/09/05 06:07:22;;;;;;;;;;;;;;;10.44;88.04;98749.61;1715874;83;21162;-78
2021/09/05 06:09:48;;;;;;;;;;;;;;;10.65;88.00;98747.30;1715958;83;20190;-73
2021/09/05 06:12:14;;;;;;;;;;;;;;;10.85;87.85;98747.96;1715956;83;20224;-73
2021/09/05 06:14:39;;;;;;;;;;;;;;;10.97;87.47;98744.48;1716000;83;20524;-73
2021/09/05 06:17:05;;;;;;;;;;;;;;;10.99;87.34;98745.02;1715922;83;20146;-78
2021/09/05 06:19:31;;;;;;;;;;;;;;;11.03;87.20;98752.11;1712261;83;21847;-78
2021/09/05 06:21:57;;;;;;;;;;;;;;;11.06;87.22;98749.40;1712338;84;20209;-73
2021/09/05 06:24:22;;;;;;;;;;;;;;;11.18;87.26;98756.22;1712410;83;20277;-78
2021/09/05 06:26:48;;;;;;;;;;;;;;;11.26;86.58;98757.60;1712363;83;20166;-73
2021/09/05 06:29:14;;;;;;;;;;;;;;;11.22;85.79;98762.76;1712443;84;20210;-73
2021/09/05 06:31:40;;;;;;;;;;;;;;;11.26;86.20;98757.06;1712419;84;21090;-74
2021/09/05 06:34:05;;;;;;;;;;;;;;;11.28;85.98;98752.75;1712288;83;20154;-78
2021/09/05 06:36:32;;;;;;;;;;;;;;;11.42;86.32;98756.58;1712499;84;20169;-73
2021/09/05 06:38:57;;;;;;;;;;;;;;;11.42;85.74;98757.11;1712423;84;20152;-73
2021/09/05 06:41:23;;;;;;;;;;;;;;;11.56;86.40;98752.28;1712580;83;20246;-78
2021/09/05 06:43:49;;;;;;;;;;;;;;;11.70;85.65;98762.60;1712206;84;21206;-78
2021/09/05 06:46:15;;;;;;;;;;;;;;;11.85;85.05;98771.63;1712354;84;20242;-73
2021/09/05 06:48:42;;;;;;;;;;;;;;;11.95;84.70;98768.10;1712160;84;20190;-78
2021/09/05 06:51:07;;;;;;;;;;;;;;;12.08;84.77;98770.30;1712497;83;20128;-78
2021/09/05 06:53:33;;;;;;;;;;;;;;;12.23;85.17;98773.56;1712573;84;20135;-73
2021/09/05 06:55:59;;;;;;;;;;;;;;;12.34;83.41;98775.19;1712512;83;21153;-73
2021/09/05 06:58:25;;;;;;;;;;;;;;;12.41;83.30;98781.71;1712200;84;20183;-75
2021/09/05 07:00:53;;;;;;;;;;;;;;;12.58;83.36;98782.78;1712486;83;20174;-74
2021/09/05 07:03:19;;;;;;;;;;;;;;;12.69;81.85;98784.38;1712308;83;20135;-74
2021/09/05 07:05:45;;;;;;;;;;;;;;;12.97;83.26;98791.11;1712627;83;20142;-73
2021/09/05 07:08:11;;;;;;;;;;;;;;;13.16;81.67;98794.04;1712312;83;21169;-78
2021/09/05 07:10:37;;;;;;;;;;;;;;;13.22;81.13;98792.42;1712382;83;20415;-78
2021/09/05 07:13:03;;;;;;;;;;;;;;;13.60;81.96;98796.90;1712249;84;20506;-74
2021/09/05 07:15:29;;;;;;;;;;;;;;;13.76;80.17;98795.72;1712227;84;20166;-78
2021/09/05 07:17:55;;;;;;;;;;;;;;;13.86;80.37;98800.29;1713115;83;20151;-74
2021/09/05 07:20:20;;;;;;;;;;;;;;;14.08;80.34;98797.94;1715765;83;21055;-78
2021/09/05 07:22:46;;;;;;;;;;;;;;;15.00;75.69;98805.34;1715911;83;20166;-78
2021/09/05 07:25:12;;;;;;;;;;;;;;;15.42;72.29;98815.50;1715800;83;20184;-79
2021/09/05 07:27:38;;;;;;;;;;;;;;;15.68;71.56;98808.38;1716022;83;20139;-78
2021/09/05 07:30:07;;;;;;;;;;;;;;;15.97;75.94;98806.31;1715895;83;20245;-74
2021/09/05 07:32:33;;;;;;;;;;;;;;;15.76;71.12;98807.73;1715842;83;21123;-79
2021/09/05 07:34:59;;;;;;;;;;;;;;;16.04;70.47;98804.02;1715822;83;20209;-74
2021/09/05 07:37:25;;;;;;;;;;;;;;;16.09;68.06;98808.62;1715908;83;20285;-79
2021/09/05 07:39:51;;;;;;;;;;;;;;;16.29;67.39;98813.77;1715897;83;20400;-75
2021/09/05 07:42:16;;;;;;;;;;;;;;;16.25;68.30;98817.41;1716026;83;20150;-74
2021/09/05 07:44:42;;;;;;;;;;;;;;;16.40;68.01;98822.61;1715831;83;21087;-74
2021/09/05 07:47:08;;;;;;;;;;;;;;;16.48;68.82;98817.83;1715918;83;20249;-79
2021/09/05 07:49:34;;;;;;;;;;;;;;;17.55;65.44;98815.88;1715822;83;20214;-79
2021/09/05 07:51:59;;;;;;;;;;;;;;;17.72;60.59;98823.50;1715934;83;20162;-79
2021/09/05 07:54:25;;;;;;;;;;;;;;;17.29;60.80;98823.80;1715972;83;20186;-78
2021/09/05 07:56:51;;;;;;;;;;;;;;;17.32;64.04;98829.22;1715964;83;21088;-79
2021/09/05 07:59:16;;;;;;;;;;;;;;;17.15;63.78;98835.29;1715969;83;20166;-79
2021/09/05 08:01:42;;;;;;;;;;;;;;;17.26;63.88;98828.52;1715980;83;20182;-75
2021/09/05 08:04:08;;;;;;;;;;;;;;;17.54;64.61;98832.06;1721532;83;20201;-79
2021/09/05 08:06:34;;;;;;;;;;;;;;;17.33;65.17;98837.69;1715977;83;20698;-74
2021/09/05 08:08:59;;;;;;;;;;;;;;;17.46;68.24;98837.70;1715893;83;21733;-74
2021/09/05 08:11:25;;;;;;;;;;;;;;;17.66;65.15;98840.56;1715890;83;20193;-79
2021/09/05 08:13:51;;;;;;;;;;;;;;;17.73;64.47;98841.00;1715705;83;20273;-74
2021/09/05 08:16:17;;;;;;;;;;;;;;;17.76;66.85;98842.31;1715990;83;20552;-79
2021/09/05 08:18:43;;;;;;;;;;;;;;;17.85;66.72;98841.83;1712371;83;20166;-74
2021/09/05 08:21:09;;;;;;;;;;;;;;;17.97;65.04;98839.39;1708100;83;21143;-74
2021/09/05 08:23:35;;;;;;;;;;;;;;;18.15;63.48;98838.17;1707866;83;20170;-79
2021/09/05 08:26:01;;;;;;;;;;;;;;;18.68;61.66;98836.91;1708188;83;20148;-79
2021/09/05 08:28:27;;;;;;;;;;;;;;;19.54;61.14;98837.09;1707900;83;20166;-74
2021/09/05 08:30:52;;;;;;;;;;;;;;;20.80;59.37;98840.63;1708203;83;20151;-75
2021/09/05 08:33:18;;;;;;;;;;;;;;;21.73;55.78;98841.77;1707869;83;21075;-74
2021/09/05 08:35:45;;;;;;;;;;;;;;;22.21;55.52;98837.72;1697758;84;20253;-79
2021/09/05 08:38:10;;;;;;;;;;;;;;;22.77;52.17;98831.31;1708087;84;20164;-75
2021/09/05 08:40:38;;;;;;;;;;;;;;;23.03;46.90;98832.45;1708002;84;20150;-80
2021/09/05 08:43:04;;;;;;;;;;;;;;;23.17;44.49;98834.91;1708128;83;20159;-79
2021/09/05 08:45:30;;;;;;;;;;;;;;;24.14;44.43;98836.85;1708083;83;21061;-75
2021/09/05 08:47:56;;;;;;;;;;;;;;;24.63;43.35;98830.61;1708064;84;20091;-74
2021/09/05 08:50:22;;;;;;;;;;;;;;;24.63;45.59;98836.15;1707982;83;20210;-75
2021/09/05 08:52:48;;;;;;;;;;;;;;;24.67;42.57;98840.39;1708276;83;20199;-75
2021/09/05 08:55:13;;;;;;;;;;;;;;;24.66;39.95;98834.05;1708015;83;20170;-75
2021/09/05 08:57:39;;;;;;;;;;;;;;;25.36;40.88;98837.70;1708281;83;21075;-75
2021/09/05 09:00:06;;;;;;;;;;;;;;;25.04;36.45;98839.67;1708041;83;20171;-75
2021/09/05 09:02:47;;;;;;;;;;;;;;;26.42;37.71;98841.42;1708152;83;20157;-75
2021/09/05 09:05:13;;;;;;;;;;;;;;;27.76;37.15;98831.19;1707578;83;20136;-80
2021/09/05 09:07:48;;;;;;;;;;;;;;;28.75;33.80;98833.73;1708606;83;20163;-75
2021/09/05 09:10:14;;;;;;;;;;;;;;;29.05;31.26;98835.07;1707906;83;21096;-80
2021/09/05 09:12:48;;;;;;;;;;;;;;;27.92;30.12;98835.80;1708020;83;20124;-80
2021/09/05 09:15:30;;;;;;;;;;;;;;;29.03;34.57;98836.65;1708147;83;20136;-75
2021/09/05 09:18:02;;;;;;;;;;;;;;;28.24;27.75;98834.27;1708110;83;20153;-80
2021/09/05 09:20:32;;;;;;;;;;;;;;;27.57;30.56;98834.03;1708022;84;20140;-80
2021/09/05 09:23:16;;;;;;;;;;;;;;;26.05;35.13;98851.48;1708188;83;21172;-75
2021/09/05 09:26:02;;;;;;;;;;;;;;;24.30;33.43;98849.39;1708232;84;20115;-80
2021/09/05 09:28:44;;;;;;;;;;;;;;;23.43;37.26;98853.94;1708056;83;20120;-80
2021/09/05 09:31:21;;;;;;;;;;;;;;;22.03;37.46;98852.77;1708185;83;20160;-80
2021/09/05 09:33:53;;;;;;;;;;;;;;;21.89;39.71;98853.84;1707799;83;20175;-80
2021/09/05 09:36:20;;;;;;;;;;;;;;;21.37;40.92;98857.44;1707919;83;21184;-80
2021/09/05 09:38:59;;;;;;;;;;;;;;;20.86;42.11;98856.99;1707908;84;20160;-80
2021/09/05 09:41:30;;;;;;;;;;;;;;;19.89;41.80;98855.88;1698017;84;20435;-80
2021/09/05 09:44:00;;;;;;;;;;;;;;;19.42;41.74;98855.56;1707918;84;20136;-74
2021/09/05 09:46:31;;;;;;;;;;;;;;;19.16;42.99;98848.59;1708211;83;20148;-79
2021/09/05 09:48:58;;;;;;;;;;;;;;;18.91;44.04;98852.00;1708156;83;21107;-74
2021/09/05 09:51:24;;;;;;;;;;;;;;;18.69;44.15;98844.02;1708176;83;20470;-79
2021/09/05 09:53:50;;;;;;;;;;;;;;;18.99;45.04;98849.87;1708102;83;20412;-80
2021/09/05 09:56:16;;;;;;;;;;;;;;;19.00;44.35;98853.67;1708266;83;20568;-79
2021/09/05 09:58:45;;;;;;;;;;;;;;;18.85;42.36;98849.94;1697892;84;20140;-74
2021/09/05 10:01:15;;;;;;;;;;;;;;;18.61;43.38;98846.92;1708133;84;21136;-74
2021/09/05 10:03:41;;;;;;;;;;;;;;;18.48;44.33;98846.44;1707929;83;20136;-74
2021/09/05 10:06:07;;;;;;;;;;;;;;;18.68;43.86;98840.22;1708236;83;20139;-75
2021/09/05 10:08:33;;;;;;;;;;;;;;;18.67;43.25;98844.91;1708138;83;20183;-79
2021/09/05 10:10:59;;;;;;;;;;;;;;;18.50;42.09;98844.19;1707875;84;20128;-79
2021/09/05 10:13:28;;;;;;;;;;;;;;;18.63;43.24;98841.67;1708021;83;21015;-74
2021/09/05 10:15:53;;;;;;;;;;;;;;;18.54;42.19;98847.11;1708167;84;20136;-74
2021/09/05 10:18:19;;;;;;;;;;;;;;;18.42;42.01;98844.13;1708088;83;20214;-79
2021/09/05 10:20:45;;;;;;;;;;;;;;;18.43;41.06;98847.92;1708022;83;20683;-74
2021/09/05 10:23:11;;;;;;;;;;;;;;;18.44;41.75;98840.50;1708138;83;20210;-79
2021/09/05 10:25:37;;;;;;;;;;;;;;;18.46;42.44;98841.83;1708286;83;21090;-79
2021/09/05 10:28:03;;;;;;;;;;;;;;;18.55;42.41;98842.70;1708085;83;20408;-79
2021/09/05 10:30:29;;;;;;;;;;;;;;;18.46;41.05;98843.77;1708020;83;20182;-79
2021/09/05 10:33:05;;;;;;;;;;;;;;;18.21;41.40;98840.50;1708070;83;20206;-79
2021/09/05 10:35:30;;;;;;;;;;;;;;;17.94;40.79;98857.00;1706829;83;20136;-74
2021/09/05 10:38:12;;;;;;;;;;;;;;;17.93;42.68;98852.64;1708107;83;21122;-74
2021/09/05 10:40:45;;;;;;;;;;;;;;;18.06;42.09;98847.70;1708259;83;20092;-74
2021/09/05 10:43:11;;;;;;;;;;;;;;;17.90;41.61;98847.78;1708138;83;20152;-74
2021/09/05 10:45:37;;;;;;;;;;;;;;;18.12;42.64;98844.29;1708358;83;20155;-79
2021/09/05 10:48:23;;;;;;;;;;;;;;;18.14;41.43;98844.78;1708129;83;20172;-79
2021/09/05 10:50:49;;;;;;;;;;;;;;;18.08;41.31;98838.59;1708304;83;21154;-74
2021/09/05 10:53:19;;;;;;;;;;;;;;;18.10;42.16;98845.95;1708025;83;20785;-79
2021/09/05 10:56:08;;;;;;;;;;;;;;;18.00;39.69;98840.70;1708274;83;20145;-74
2021/09/05 10:58:55;;;;;;;;;;;;;;;18.05;40.83;98846.08;1707946;83;20120;-79
2021/09/05 11:01:30;;;;;;;;;;;;;;;18.02;41.15;98846.67;1691337;83;20129;-79
2021/09/05 11:04:15;;;;;;;;;;;;;;;18.10;41.27;98850.06;1707265;83;21271;-79
2021/09/05 11:06:43;;;;;;;;;;;;;;;18.12;40.61;98849.21;1708104;84;20089;-79
2021/09/05 11:12:25;;;;;;;;;;;;;;;18.02;40.93;98846.67;1707988;83;20486;-74
2021/09/05 11:14:53;;;;;;;;;;;;;;;18.07;42.13;98849.31;1707893;83;20480;-74
2021/09/05 11:17:20;;;;;;;;;;;;;;;18.03;42.14;98843.65;1708237;83;21160;-74
2021/09/05 11:19:48;;;;;;;;;;;;;;;18.10;42.81;98849.25;1709714;83;20179;-79
2021/09/05 11:22:17;;;;;;;;;;;;;;;18.19;43.80;98835.05;1712633;83;20167;-74
2021/09/05 11:24:43;;;;;;;;;;;;;;;18.32;43.54;98843.25;1711959;83;20409;-79
2021/09/05 11:27:13;;;;;;;;;;;;;;;18.26;42.56;98840.36;1712459;84;20174;-79
2021/09/05 11:29:39;;;;;;;;;;;;;;;18.16;42.35;98835.68;1712165;84;21018;-79
2021/09/05 11:32:10;;;;;;;;;;;;;;;18.20;44.00;98840.25;1712493;84;20821;-79
2021/09/05 11:34:36;;;;;;;;;;;;;;;18.13;42.63;98839.05;1712131;84;20131;-79
2021/09/05 11:37:02;;;;;;;;;;;;;;;18.22;44.93;98839.38;1712525;83;20179;-79
2021/09/05 11:39:28;;;;;;;;;;;;;;;18.25;41.88;98839.30;1712227;84;20167;-75
2021/09/05 11:41:59;;;;;;;;;;;;;;;18.31;42.61;98840.81;1712582;83;20604;-74
2021/09/05 11:44:30;;;;;;;;;;;;;;;18.19;43.01;98846.83;1711780;83;20170;-74
2021/09/05 11:47:12;;;;;;;;;;;;;;;18.22;42.16;98842.12;1712444;83;20099;-79
2021/09/05 11:49:52;;;;;;;;;;;;;;;18.21;42.01;98845.17;1712313;83;20124;-74
2021/09/05 11:52:20;;;;;;;;;;;;;;;18.16;43.44;98837.86;1712297;83;20140;-79
2021/09/05 11:54:48;;;;;;;;;;;;;;;18.04;43.00;98839.78;1711693;83;21067;-79
2021/09/05 11:57:15;;;;;;;;;;;;;;;18.07;42.81;98836.16;1712262;83;20115;-79
2021/09/05 11:59:40;;;;;;;;;;;;;;;18.12;42.84;98836.88;1712107;84;20139;-73
2021/09/05 12:02:06;;;;;;;;;;;;;;;18.11;43.45;98842.08;1712446;83;20694;-73
2021/09/05 12:04:36;;;;;;;;;;;;;;;18.16;43.37;98832.38;1701980;84;20675;-79
2021/09/05 12:07:03;;;;;;;;;;;;;;;18.05;42.48;98840.59;1726181;83;21152;-78
2021/09/05 12:09:29;;;;;;;;;;;;;;;18.02;43.02;98839.26;1712220;84;20155;-78
2021/09/05 12:12:00;;;;;;;;;;;;;;;18.13;43.84;98839.05;1712790;84;20163;-78
2021/09/05 12:14:30;;;;;;;;;;;;;;;18.19;44.09;98837.80;1712314;84;20172;-74
2021/09/05 12:16:56;;;;;;;;;;;;;;;18.15;42.13;98834.06;1712617;84;20169;-79
2021/09/05 12:19:21;;;;;;;;;;;;;;;18.00;41.14;98837.95;1712963;83;21790;-78
2021/09/05 12:21:57;;;;;;;;;;;;;;;18.06;42.48;98831.24;1716091;83;20221;-78
2021/09/05 12:24:22;;;;;;;;;;;;;;;18.00;41.40;98836.02;1715980;83;20404;-78
2021/09/05 12:26:48;;;;;;;;;;;;;;;18.04;42.54;98830.75;1716139;83;20588;-75
2021/09/05 12:29:14;;;;;;;;;;;;;;;18.06;42.34;98832.61;1715954;83;20225;-79
2021/09/05 12:31:45;;;;;;;;;;;;;;;18.04;42.13;98832.12;1697679;83;21097;-74
2021/09/05 12:34:11;;;;;;;;;;;;;;;18.10;43.34;98826.75;1715922;83;20136;-73
2021/09/05 12:36:37;;;;;;;;;;;;;;;18.08;42.26;98824.08;1716367;83;20128;-74
2021/09/05 12:39:02;;;;;;;;;;;;;;;18.12;42.29;98827.27;1715976;83;20138;-78
2021/09/05 12:41:29;;;;;;;;;;;;;;;18.20;43.32;98830.65;1716143;83;20198;-79
2021/09/05 12:43:58;;;;;;;;;;;;;;;18.24;43.14;98827.52;1716048;83;21208;-73
2021/09/05 12:46:40;;;;;;;;;;;;;;;18.23;42.89;98827.84;1716021;83;20187;-78
2021/09/05 12:49:16;;;;;;;;;;;;;;;18.16;42.97;98835.68;1715773;83;20153;-73
2021/09/05 12:51:52;;;;;;;;;;;;;;;18.18;43.51;98827.95;1716182;83;20545;-73
2021/09/05 12:54:19;;;;;;;;;;;;;;;18.16;41.48;98829.63;1716086;83;20129;-74
2021/09/05 12:56:44;;;;;;;;;;;;;;;17.96;41.70;98833.66;1716140;83;21067;-79